createdAt,value
2017-11-05T00:00:25.600Z,1000.1
2017-11-05T00:11:11.336Z,1000.0
2017-11-05T00:21:25.805Z,999.9
2017-11-05T00:31:39.952Z,1000.3
2017-11-05T00:41:54.360Z,1000.3
2017-11-05T00:52:08.292Z,1000.2
2017-11-05T01:02:23.064Z,1000.4
2017-11-05T01:13:07.885Z,1000.4
2017-11-05T01:23:53.024Z,1000.3
2017-11-05T01:34:38.785Z,1000.3
2017-11-05T01:44:52.901Z,1000.3
2017-11-05T01:55:07.071Z,1000.3
2017-11-05T02:05:52.755Z,1000.1
2017-11-05T02:16:07.214Z,1000.1
2017-11-05T02:26:21.445Z,1000.1
2017-11-05T02:36:35.528Z,1000.1
2017-11-05T02:46:49.993Z,1000.2
2017-11-05T02:57:04.101Z,1000.2
2017-11-05T03:07:18.696Z,1000.4
2017-11-05T03:17:32.956Z,1000.1
2017-11-05T03:27:47.548Z,1000.1
2017-11-05T03:38:00.853Z,1000.2
2017-11-05T03:48:14.333Z,1000.2
2017-11-05T03:58:28.626Z,1000.2
2017-11-05T04:09:13.886Z,1000.1
2017-11-05T04:19:58.655Z,1000.2
2017-11-05T04:30:12.521Z,1000.3
2017-11-05T04:41:00.691Z,1000.5
2017-11-05T04:51:12.022Z,1000.5
2017-11-05T05:01:26.407Z,1000.5
2017-11-05T05:12:11.775Z,1000.5
2017-11-05T05:22:58.720Z,1000.6
2017-11-05T05:33:13.150Z,1000.6
2017-11-05T05:43:27.084Z,1000.7
2017-11-05T05:53:40.470Z,1000.7
2017-11-05T06:04:29.901Z,1001.0
2017-11-05T06:14:43.631Z,1001.1
2017-11-05T06:24:57.803Z,1001.1
2017-11-05T06:35:12.273Z,1001.3
2017-11-05T06:45:57.564Z,1001.6
2017-11-05T06:56:11.361Z,1001.8
2017-11-05T07:07:00.656Z,1002.1
2017-11-05T07:17:14.312Z,1002.3
2017-11-05T07:27:28.379Z,1002.5
2017-11-05T07:38:16.920Z,1002.6
2017-11-05T07:48:30.507Z,1002.7
2017-11-05T07:58:43.794Z,1002.9
2017-11-05T08:09:32.672Z,1002.8
2017-11-05T08:19:46.783Z,1003.0
2017-11-05T08:29:58.091Z,1003.1
2017-11-05T08:40:44.034Z,1003.0
2017-11-05T08:51:33.467Z,1002.9
2017-11-05T09:01:45.068Z,1002.9
2017-11-05T09:11:59.487Z,1003.1
2017-11-05T09:22:13.884Z,1003.0
2017-11-05T09:33:03.411Z,1003.3
2017-11-05T09:43:49.024Z,1003.5
2017-11-05T09:54:34.138Z,1003.6
2017-11-05T10:05:19.970Z,1003.7
2017-11-05T10:16:08.534Z,1003.9
2017-11-05T10:26:57.241Z,1004.1
2017-11-05T10:38:18.840Z,1004.2
2017-11-05T10:48:36.216Z,1004.2
2017-11-05T10:58:50.813Z,1004.2
2017-11-05T11:09:04.737Z,1004.3
2017-11-05T11:19:18.866Z,1004.2
2017-11-05T11:30:13.575Z,1004.3
2017-11-05T11:40:27.213Z,1004.4
2017-11-05T11:51:13.867Z,1004.5
2017-11-05T12:01:28.896Z,1004.6
2017-11-05T12:11:42.466Z,1004.6
2017-11-05T12:22:28.142Z,1004.6
2017-11-05T12:33:44.649Z,1004.8
2017-11-05T12:44:57.085Z,1004.7
2017-11-05T12:55:22.365Z,1004.7
2017-11-05T13:05:37.181Z,1004.9
2017-11-05T13:15:51.619Z,1005.4
2017-11-05T13:26:06.375Z,1005.6
2017-11-05T13:36:21.807Z,1005.2
2017-11-05T13:47:06.822Z,1005.3
2017-11-05T13:57:21.800Z,1005.2
2017-11-05T14:07:35.466Z,1005.9
2017-11-05T14:17:49.511Z,1005.5
2017-11-05T14:28:37.169Z,1005.5
2017-11-05T14:38:51.437Z,1005.6
2017-11-05T14:49:08.869Z,1005.8
2017-11-05T14:59:52.396Z,1006.1
2017-11-05T15:10:43.156Z,1006.1
2017-11-05T15:32:14.613Z,1006.6
2017-11-05T15:43:04.234Z,1006.8
2017-11-05T15:53:19.491Z,1006.9
2017-11-05T16:03:33.502Z,1007.2
2017-11-05T16:13:47.439Z,1007.3
2017-11-05T16:24:33.206Z,1007.4
2017-11-05T16:35:19.210Z,1007.8
2017-11-05T16:45:33.459Z,1008.1
2017-11-05T16:55:48.056Z,1008.3
2017-11-05T17:06:35.057Z,1008.4
2017-11-05T17:17:32.761Z,1008.6
2017-11-05T17:27:46.403Z,1008.7
2017-11-05T17:37:59.686Z,1008.8
2017-11-05T17:48:14.136Z,1008.8
2017-11-05T17:58:28.250Z,1008.9
2017-11-05T18:09:12.920Z,1009.0
2017-11-05T18:19:26.263Z,1009.1
2017-11-05T18:30:11.111Z,1009.2
2017-11-05T18:40:56.691Z,1009.4
2017-11-05T19:05:09.576Z,1009.7
2017-11-05T19:16:09.941Z,1009.8
2017-11-05T19:27:01.131Z,1009.9
2017-11-05T19:38:03.561Z,1010.1
2017-11-05T19:48:57.354Z,1010.3
2017-11-05T19:59:53.629Z,1010.2
2017-11-05T20:10:05.785Z,1010.3
2017-11-05T20:21:55.243Z,1010.4
2017-11-05T20:32:12.762Z,1010.5
2017-11-05T20:42:42.826Z,1010.6
2017-11-05T20:53:42.006Z,1010.8
2017-11-05T21:03:55.409Z,1010.9
2017-11-05T21:14:08.702Z,1011.0
2017-11-05T21:24:54.211Z,1011.1
2017-11-05T21:35:43.150Z,1011.2
2017-11-05T21:45:56.642Z,1011.3
2017-11-05T22:00:10.110Z,1011.4
2017-11-05T22:11:02.404Z,1011.5
2017-11-05T22:21:16.482Z,1011.6
2017-11-05T22:31:30.619Z,1011.7
2017-11-05T22:56:59.672Z,1011.9
2017-11-05T23:07:13.214Z,1012.0
2017-11-05T23:17:25.355Z,1011.9
2017-11-05T23:27:36.648Z,1012.0
2017-11-05T23:39:54.560Z,1012.0
2017-11-05T23:52:23.049Z,1012.1
